Palmer, PR (00721)

10:40 AM AST on July 30, 2016 (GMT -0400)
Fajardo PR Weather Cafe | | Change Station

Elev 144 ft 18.32 °N, 65.66 °W | Updated 8 seconds ago

Scattered Clouds
Scattered Clouds
87.4 °F
Feels Like 99 °F
N
7.0
Wind Variable Wind from ESE
Gusts 7.0 mph

Today
High -- | Low -- °F
--% Chance of Precip.
Yesterday
High -- | Low -- °F
Precip. -- in
Pressure 30.06 in
Visibility 10.0 miles
Clouds Scattered Clouds 2800 ft
Scattered Clouds 3600 ft
Heat Index 99 °F
Dew Point 77 °F
Humidity 71%
Rainfall 0.00 in
Snow Depth Not available.
6:00 AM 6:58 PM
Waning Crescent, 13% visible
METAR TJNR 301353Z AUTO 04012G18KT 10SM SCT028 SCT036 31/24 A3005 RMK AO2 SLP177 T03060239 PNO
Pressure 30.06 in
Visibility 10.0 miles
Clouds Scattered Clouds 2800 ft
Scattered Clouds 3600 ft
Heat Index 99 °F
Dew Point 77 °F
Humidity 71%
Rainfall 0.00 in
Snow Depth Not available.
6:00 AM 6:58 PM
Waning Crescent, 13% visible
METAR TJNR 301353Z AUTO 04012G18KT 10SM SCT028 SCT036 31/24 A3005 RMK AO2 SLP177 T03060239 PNO

10-Day Weather Forecast

Almanac

Astronomy

Jul. 30, 2016 Rise Set
Actual Time
Civil Twilight
Nautical Twilight
Astronomical Twilight
Moon
Length of Visible Light
Length of Day
Tomorrow will be .
, % of the Moon is Illuminated

Today's Extremes

State Highs State Lows

Community

WunderPhotos

Upload Photos

1,928,565 photos uploaded!

WunderBlog® & News

Nearby

Air Quality

  Air Quality AQ Index Pollutant
Not available.

Snow Depth

Station Depth Elevation

Earthquake Activity

City Distance Mag. Time & Date
Minimum magnitude displayed is 2.5.

Coastal Water Temperatures

Place Temperature

Stations

Nearby Weather Stations

Station Location Temp. Windchill Dew Point Humidity Wind Precip. Elev Updated Type
                   

Watches & Warnings

There are currently no watches in effect.